createdAt,value
2017-09-19T00:02:24.112Z,18.03
2017-09-19T00:04:51.620Z,16.07
2017-09-19T00:07:19.872Z,14.93
2017-09-19T00:09:49.019Z,17.90
2017-09-19T00:12:16.577Z,15.10
2017-09-19T00:14:44.588Z,16.80
2017-09-19T00:17:12.106Z,17.23
2017-09-19T00:19:39.653Z,16.33
2017-09-19T00:22:07.169Z,15.47
2017-09-19T00:24:34.693Z,21.20
2017-09-19T00:27:02.196Z,15.40
2017-09-19T00:29:30.444Z,19.70
2017-09-19T00:31:57.965Z,16.20
2017-09-19T00:34:25.509Z,18.50
2017-09-19T00:36:52.996Z,14.87
2017-09-19T00:39:20.480Z,14.30
2017-09-19T00:41:47.997Z,18.00
2017-09-19T00:44:15.512Z,15.70
2017-09-19T00:46:43.122Z,14.37
2017-09-19T00:49:10.674Z,17.47
2017-09-19T00:51:38.164Z,16.60
2017-09-19T00:54:05.657Z,21.77
2017-09-19T00:56:33.974Z,17.80
2017-09-19T00:59:01.465Z,20.03
2017-09-19T01:01:28.987Z,18.77
2017-09-19T01:03:56.504Z,15.50
2017-09-19T01:06:24.790Z,15.33
2017-09-19T01:08:53.109Z,15.20
2017-09-19T01:11:20.616Z,18.60
2017-09-19T01:13:48.905Z,15.63
2017-09-19T01:16:17.189Z,15.83
2017-09-19T01:18:44.697Z,14.13
2017-09-19T01:21:12.227Z,13.00
2017-09-19T01:23:39.722Z,15.10
2017-09-19T01:26:07.345Z,13.73
2017-09-19T01:28:34.844Z,16.70
2017-09-19T01:31:02.459Z,14.73
2017-09-19T01:33:29.964Z,15.37
2017-09-19T01:35:57.481Z,14.80
2017-09-19T01:38:25.060Z,17.53
2017-09-19T01:40:52.602Z,13.23
2017-09-19T01:43:20.096Z,19.57
2017-09-19T01:45:47.585Z,16.10
2017-09-19T01:48:15.174Z,15.03
2017-09-19T01:50:42.688Z,15.10
2017-09-19T01:53:10.977Z,18.50
2017-09-19T01:55:39.256Z,20.80
2017-09-19T01:58:07.505Z,20.10
2017-09-19T02:00:35.007Z,19.93
2017-09-19T02:03:02.544Z,20.57
2017-09-19T02:05:30.812Z,20.93
2017-09-19T02:07:59.078Z,19.40
2017-09-19T02:10:26.598Z,23.73
2017-09-19T02:12:54.117Z,25.93
2017-09-19T02:15:22.393Z,23.20
2017-09-19T02:17:49.923Z,23.93
2017-09-19T02:20:17.437Z,25.57
2017-09-19T02:22:44.953Z,34.07
2017-09-19T02:25:13.262Z,25.70
2017-09-19T02:27:40.785Z,29.20
2017-09-19T02:30:09.065Z,30.77
2017-09-19T02:32:37.392Z,28.13
2017-09-19T02:35:04.942Z,27.37
2017-09-19T02:37:32.447Z,29.20
2017-09-19T02:40:00.058Z,30.20
2017-09-19T02:42:27.561Z,27.10
2017-09-19T02:44:55.082Z,29.93
2017-09-19T02:47:22.629Z,30.77
2017-09-19T02:49:50.141Z,29.50
2017-09-19T02:52:17.754Z,28.20
2017-09-19T02:54:45.292Z,29.80
2017-09-19T02:57:12.873Z,29.73
2017-09-19T02:59:40.392Z,29.53
2017-09-19T03:02:08.687Z,33.50
2017-09-19T03:04:36.195Z,33.80
2017-09-19T03:07:03.695Z,32.60
2017-09-19T03:09:31.993Z,35.43
2017-09-19T03:11:59.509Z,35.63
2017-09-19T03:14:27.044Z,34.40
2017-09-19T03:16:54.572Z,32.87
2017-09-19T03:19:22.076Z,35.00
2017-09-19T03:21:49.700Z,37.13
2017-09-19T03:24:17.240Z,35.20
2017-09-19T03:26:44.738Z,43.77
2017-09-19T03:29:12.243Z,31.13
2017-09-19T03:31:39.771Z,37.73
2017-09-19T03:34:07.293Z,33.03
2017-09-19T03:36:34.809Z,34.60
2017-09-19T03:39:03.116Z,34.90
2017-09-19T03:41:30.633Z,33.50
2017-09-19T03:43:58.917Z,37.17
2017-09-19T03:46:27.223Z,33.80
2017-09-19T03:48:54.727Z,38.00
2017-09-19T03:51:22.245Z,36.87
2017-09-19T03:53:49.783Z,41.10
2017-09-19T03:56:17.309Z,38.20
2017-09-19T03:58:44.837Z,34.30
2017-09-19T04:01:12.359Z,35.10
2017-09-19T04:03:39.858Z,35.33
2017-09-19T04:06:07.370Z,34.73
2017-09-19T04:08:34.891Z,41.27
2017-09-19T04:11:02.396Z,40.17
2017-09-19T04:13:29.951Z,41.50
2017-09-19T04:15:57.471Z,39.50
2017-09-19T04:18:25.735Z,35.40
2017-09-19T04:20:53.254Z,39.00
2017-09-19T04:23:20.792Z,41.67
2017-09-19T04:25:49.073Z,36.77
2017-09-19T04:28:16.590Z,37.23
2017-09-19T04:30:44.111Z,40.20
2017-09-19T04:33:11.651Z,36.50
2017-09-19T04:35:39.157Z,42.20
2017-09-19T04:38:06.693Z,36.17
2017-09-19T04:40:34.190Z,39.57
2017-09-19T04:43:01.709Z,40.57
2017-09-19T04:45:29.261Z,35.90
2017-09-19T04:47:56.933Z,37.93
2017-09-19T04:50:24.482Z,33.60
2017-09-19T04:52:51.997Z,40.57
2017-09-19T04:55:20.267Z,32.70
2017-09-19T04:57:47.802Z,35.70
2017-09-19T05:00:15.317Z,37.67
2017-09-19T05:02:42.827Z,37.53
2017-09-19T05:05:10.342Z,31.73
2017-09-19T05:07:37.911Z,33.50
2017-09-19T05:10:05.634Z,34.27
2017-09-19T05:12:33.913Z,30.47
2017-09-19T05:15:02.226Z,32.43
2017-09-19T05:17:29.723Z,37.07
2017-09-19T05:19:57.253Z,31.93
2017-09-19T05:22:24.765Z,28.97
2017-09-19T05:24:53.062Z,34.87
2017-09-19T05:27:20.638Z,29.37
2017-09-19T05:29:48.151Z,39.00
2017-09-19T05:32:16.428Z,27.20
2017-09-19T05:34:44.714Z,32.23
2017-09-19T05:37:12.976Z,33.53
2017-09-19T05:39:41.262Z,27.23
2017-09-19T05:42:09.577Z,24.00
2017-09-19T05:44:37.136Z,27.27
2017-09-19T05:47:04.660Z,31.13
2017-09-19T05:49:32.927Z,27.57
2017-09-19T05:52:01.229Z,26.77
2017-09-19T05:54:28.740Z,28.30
2017-09-19T05:56:56.279Z,39.37
2017-09-19T05:59:23.783Z,25.63
2017-09-19T06:01:52.085Z,24.10
2017-09-19T06:04:19.603Z,21.80
2017-09-19T06:06:47.867Z,22.90
2017-09-19T06:09:27.217Z,26.70
2017-09-19T06:11:54.715Z,25.90
2017-09-19T06:14:22.237Z,25.27
2017-09-19T06:16:49.755Z,26.90
2017-09-19T06:19:17.269Z,24.67
2017-09-19T06:21:45.565Z,33.53
2017-09-19T06:24:13.101Z,28.10
2017-09-19T06:26:41.371Z,25.73
2017-09-19T06:29:09.687Z,23.17
2017-09-19T06:31:37.245Z,23.17
2017-09-19T06:34:04.770Z,25.43
2017-09-19T06:36:33.058Z,24.53
2017-09-19T06:39:00.566Z,22.50
2017-09-19T06:41:28.089Z,25.43
2017-09-19T06:43:55.654Z,26.07
2017-09-19T06:46:23.155Z,22.53
2017-09-19T06:48:50.695Z,26.93
2017-09-19T06:51:18.202Z,25.20
2017-09-19T06:53:46.471Z,26.87
2017-09-19T06:56:14.760Z,22.43
2017-09-19T06:58:42.285Z,22.00
2017-09-19T07:01:11.310Z,22.20
2017-09-19T07:03:39.570Z,20.80
2017-09-19T07:06:07.843Z,24.63
2017-09-19T07:08:35.369Z,35.13
2017-09-19T07:11:02.892Z,27.07
2017-09-19T07:13:30.403Z,28.40
2017-09-19T07:15:58.681Z,34.50
2017-09-19T07:18:26.218Z,37.53
2017-09-19T07:20:53.721Z,42.13
2017-09-19T07:23:22.236Z,39.40
2017-09-19T07:25:50.102Z,41.50
2017-09-19T07:28:17.631Z,42.73
2017-09-19T07:30:45.917Z,43.63
2017-09-19T07:33:13.434Z,51.33
2017-09-19T07:35:40.964Z,50.40
2017-09-19T07:38:08.481Z,53.30
2017-09-19T07:40:36.823Z,48.57
2017-09-19T07:43:04.342Z,56.23
2017-09-19T07:45:31.880Z,47.83
2017-09-19T07:48:00.156Z,48.43
2017-09-19T07:50:28.458Z,48.40
2017-09-19T07:52:56.120Z,47.87
2017-09-19T07:55:23.678Z,56.70
2017-09-19T07:57:51.223Z,54.63
2017-09-19T08:00:18.718Z,45.90
2017-09-19T08:02:46.233Z,43.33
2017-09-19T08:05:13.769Z,49.40
2017-09-19T08:07:41.285Z,46.63
2017-09-19T08:10:08.797Z,46.50
2017-09-19T08:12:37.075Z,49.03
2017-09-19T08:15:05.358Z,48.33
2017-09-19T08:17:32.875Z,49.10
2017-09-19T08:20:00.371Z,48.67
2017-09-19T08:22:28.655Z,45.70
2017-09-19T08:24:56.152Z,48.87
2017-09-19T08:27:23.662Z,39.20
2017-09-19T08:29:51.964Z,43.53
2017-09-19T08:32:19.482Z,48.83
2017-09-19T08:34:47.769Z,43.70
2017-09-19T08:37:16.051Z,43.20
2017-09-19T08:39:44.329Z,37.40
2017-09-19T08:42:11.858Z,45.00
2017-09-19T08:44:39.370Z,37.30
2017-09-19T08:47:06.896Z,34.53
2017-09-19T08:49:35.163Z,39.40
2017-09-19T08:52:03.445Z,38.00
2017-09-19T08:54:31.754Z,48.67
2017-09-19T08:56:59.251Z,43.10
2017-09-19T08:59:26.766Z,40.67
2017-09-19T09:01:54.309Z,37.97
2017-09-19T09:04:21.821Z,37.33
2017-09-19T09:06:49.315Z,40.67
2017-09-19T09:09:17.599Z,42.30
2017-09-19T09:11:45.131Z,40.40
2017-09-19T09:14:12.637Z,39.37
2017-09-19T09:16:40.173Z,41.93
2017-09-19T09:19:08.448Z,49.53
2017-09-19T09:21:36.739Z,43.00
2017-09-19T09:24:04.335Z,52.83
2017-09-19T09:26:31.849Z,53.50
2017-09-19T09:28:59.370Z,47.07
2017-09-19T09:31:27.805Z,60.60
2017-09-19T09:33:55.317Z,51.87
2017-09-19T09:36:22.835Z,42.93
2017-09-19T09:38:50.362Z,43.33
2017-09-19T09:41:17.901Z,35.77
2017-09-19T09:43:46.163Z,47.43
2017-09-19T09:46:13.659Z,40.60
2017-09-19T09:48:41.189Z,49.67
2017-09-19T09:51:09.450Z,42.63
2017-09-19T09:53:38.483Z,39.10
2017-09-19T09:56:05.979Z,41.73
2017-09-19T09:58:33.479Z,53.23
2017-09-19T10:01:01.766Z,42.40
2017-09-19T10:03:30.042Z,47.80
2017-09-19T10:05:58.307Z,47.57
2017-09-19T10:08:26.600Z,42.93
2017-09-19T10:10:54.100Z,47.60
2017-09-19T10:13:21.629Z,39.40
2017-09-19T10:15:49.141Z,39.77
2017-09-19T10:18:16.669Z,41.87
2017-09-19T10:20:44.185Z,44.57
2017-09-19T10:23:12.486Z,44.30
2017-09-19T10:25:39.997Z,37.07
2017-09-19T10:28:07.545Z,44.20
2017-09-19T10:30:35.040Z,49.00
2017-09-19T10:33:02.624Z,51.60
2017-09-19T10:35:30.165Z,46.37
2017-09-19T10:37:57.677Z,50.40
2017-09-19T10:40:25.197Z,48.90
2017-09-19T10:42:52.716Z,44.60
2017-09-19T10:45:20.998Z,53.80
2017-09-19T10:47:49.295Z,45.13
2017-09-19T10:50:16.800Z,44.10
2017-09-19T10:52:44.318Z,53.93
2017-09-19T10:55:11.849Z,56.13
2017-09-19T10:57:40.110Z,59.77
2017-09-19T11:00:07.641Z,55.57
2017-09-19T11:02:35.160Z,56.20
2017-09-19T11:05:02.731Z,64.47
2017-09-19T11:07:30.231Z,60.23
2017-09-19T11:09:57.852Z,52.73
2017-09-19T11:12:25.509Z,53.03
2017-09-19T11:14:53.011Z,50.00
2017-09-19T11:17:21.327Z,51.40
2017-09-19T11:19:48.871Z,47.53
2017-09-19T11:22:17.150Z,49.73
2017-09-19T11:24:45.427Z,55.27
2017-09-19T11:27:13.731Z,55.67
2017-09-19T11:29:41.250Z,68.07
2017-09-19T11:32:09.557Z,68.77
2017-09-19T11:34:37.054Z,59.93
2017-09-19T11:37:04.551Z,61.77
2017-09-19T11:39:32.859Z,66.30
2017-09-19T11:42:00.368Z,67.30
2017-09-19T11:44:27.874Z,62.43
2017-09-19T11:46:55.399Z,51.70
2017-09-19T11:49:23.673Z,54.80
2017-09-19T11:51:51.965Z,45.03
2017-09-19T11:54:19.502Z,51.60
2017-09-19T11:56:47.767Z,48.33
2017-09-19T11:59:15.280Z,42.17
2017-09-19T12:01:42.797Z,52.60
2017-09-19T12:04:11.110Z,41.03
2017-09-19T12:06:38.611Z,44.70
2017-09-19T12:09:06.237Z,42.67
2017-09-19T12:11:33.774Z,50.03
2017-09-19T12:14:01.286Z,40.77
2017-09-19T12:16:28.806Z,43.93
2017-09-19T12:18:56.322Z,38.03
2017-09-19T12:21:23.836Z,41.57
2017-09-19T12:23:51.373Z,42.33
2017-09-19T12:26:18.871Z,39.73
2017-09-19T12:28:46.375Z,37.30
2017-09-19T12:31:14.681Z,38.50
2017-09-19T12:33:42.183Z,28.77
2017-09-19T12:36:09.705Z,30.03
2017-09-19T12:38:37.227Z,34.40
2017-09-19T12:41:05.514Z,34.20
2017-09-19T12:43:33.086Z,36.93
2017-09-19T12:46:00.607Z,33.60
2017-09-19T12:48:28.871Z,33.97
2017-09-19T12:50:56.375Z,34.33
2017-09-19T12:53:23.913Z,31.13
2017-09-19T12:55:52.222Z,32.33
2017-09-19T12:58:19.723Z,27.67
2017-09-19T13:00:47.247Z,26.07
2017-09-19T13:03:14.747Z,36.37
2017-09-19T13:05:43.028Z,35.33
2017-09-19T13:08:11.341Z,32.80
2017-09-19T13:10:38.834Z,32.90
2017-09-19T13:13:06.345Z,30.57
2017-09-19T13:15:33.876Z,34.47
2017-09-19T13:18:02.148Z,32.47
2017-09-19T13:20:30.450Z,32.50
2017-09-19T13:22:57.951Z,27.03
2017-09-19T13:25:25.446Z,20.50
2017-09-19T13:27:53.748Z,18.47
2017-09-19T13:30:21.319Z,21.77
2017-09-19T13:33:00.686Z,23.57
2017-09-19T13:35:28.183Z,24.13
2017-09-19T13:37:56.474Z,25.23
2017-09-19T13:40:23.994Z,23.50
2017-09-19T13:42:51.514Z,21.93
2017-09-19T13:45:19.062Z,21.53
2017-09-19T13:47:46.598Z,21.17
2017-09-19T13:50:14.867Z,23.87
2017-09-19T13:52:43.145Z,19.10
2017-09-19T13:55:11.469Z,21.67
2017-09-19T13:57:38.982Z,29.43
2017-09-19T14:00:07.265Z,22.83
2017-09-19T14:02:34.809Z,23.33
2017-09-19T14:05:03.121Z,24.80
2017-09-19T14:07:32.293Z,28.93
2017-09-19T14:09:59.841Z,23.53
2017-09-19T14:12:28.102Z,17.50
2017-09-19T14:14:56.362Z,21.43
2017-09-19T14:17:23.889Z,21.57
2017-09-19T14:19:51.444Z,20.43
2017-09-19T14:22:18.982Z,24.80
2017-09-19T14:24:47.243Z,17.50
2017-09-19T14:27:15.522Z,18.30
2017-09-19T14:29:43.825Z,19.97
2017-09-19T14:32:11.329Z,13.30
2017-09-19T14:34:38.831Z,16.37
2017-09-19T14:37:06.369Z,21.93
2017-09-19T14:39:34.682Z,16.60
2017-09-19T14:42:02.193Z,16.80
2017-09-19T14:44:29.801Z,17.63
2017-09-19T14:46:57.312Z,14.50
2017-09-19T14:49:24.834Z,17.00
2017-09-19T14:51:52.364Z,15.50
2017-09-19T14:54:19.882Z,14.20
2017-09-19T14:56:48.161Z,18.03
2017-09-19T14:59:16.450Z,19.80
2017-09-19T15:01:44.750Z,14.20
2017-09-19T15:04:12.264Z,12.50
2017-09-19T15:06:39.896Z,18.33
2017-09-19T15:09:07.481Z,14.03
2017-09-19T15:11:36.497Z,14.70
2017-09-19T15:14:04.773Z,14.60
2017-09-19T15:16:33.087Z,11.33
2017-09-19T15:19:00.587Z,15.40
2017-09-19T15:21:28.095Z,16.93
2017-09-19T15:23:55.606Z,19.37
2017-09-19T15:26:23.876Z,18.90
2017-09-19T15:28:51.399Z,18.23
2017-09-19T15:31:18.903Z,21.33
2017-09-19T15:33:46.435Z,17.90
2017-09-19T15:36:13.955Z,20.30
2017-09-19T15:38:41.529Z,18.87
2017-09-19T15:41:09.063Z,16.53
2017-09-19T15:43:37.341Z,18.43
2017-09-19T15:46:05.646Z,19.80
2017-09-19T15:48:33.151Z,15.93
2017-09-19T15:51:00.647Z,16.80
2017-09-19T15:53:28.172Z,15.60
2017-09-19T15:55:56.449Z,18.77
2017-09-19T15:58:24.039Z,18.00
2017-09-19T16:00:51.553Z,19.67
2017-09-19T16:03:19.096Z,20.67
2017-09-19T16:05:46.621Z,19.87
2017-09-19T16:08:14.132Z,20.70
2017-09-19T16:10:41.661Z,22.40
2017-09-19T16:13:09.175Z,21.77
2017-09-19T16:15:37.481Z,19.53
2017-09-19T16:18:05.042Z,18.47
2017-09-19T16:20:32.553Z,18.80
2017-09-19T16:23:00.084Z,21.97
2017-09-19T16:25:27.588Z,21.57
2017-09-19T16:27:55.133Z,18.60
2017-09-19T16:30:23.399Z,18.87
2017-09-19T16:32:50.913Z,22.00
2017-09-19T16:35:18.427Z,20.27
2017-09-19T16:37:46.705Z,19.77
2017-09-19T16:40:15.020Z,24.13
2017-09-19T16:42:43.301Z,24.73
2017-09-19T16:45:10.803Z,22.00
2017-09-19T16:47:38.341Z,20.23
2017-09-19T16:50:05.858Z,27.50
2017-09-19T16:52:33.360Z,20.63
2017-09-19T16:55:00.982Z,41.63
2017-09-19T16:57:28.542Z,24.03
2017-09-19T16:59:56.103Z,23.97
2017-09-19T17:02:23.603Z,27.20
2017-09-19T17:04:51.116Z,28.50
2017-09-19T17:07:18.639Z,26.77
2017-09-19T17:09:46.923Z,26.67
2017-09-19T17:12:15.201Z,28.70
2017-09-19T17:14:43.505Z,30.97
2017-09-19T17:17:11.004Z,34.13
2017-09-19T17:19:38.527Z,32.17
2017-09-19T17:22:06.053Z,30.07
2017-09-19T17:24:34.330Z,34.93
2017-09-19T17:27:02.624Z,38.17
2017-09-19T17:29:30.193Z,38.80
2017-09-19T17:31:57.734Z,32.73
2017-09-19T17:34:25.234Z,34.27
2017-09-19T17:36:52.739Z,45.23
2017-09-19T17:39:21.022Z,45.30
2017-09-19T17:41:48.536Z,35.70
2017-09-19T17:44:16.263Z,44.97
2017-09-19T17:46:43.762Z,36.40
2017-09-19T17:49:11.383Z,40.60
2017-09-19T17:51:38.903Z,38.60
2017-09-19T17:54:07.214Z,38.90
2017-09-19T17:56:34.735Z,36.10
2017-09-19T17:59:03.009Z,37.27
2017-09-19T18:01:31.338Z,36.03
2017-09-19T18:03:58.860Z,37.93
2017-09-19T18:06:27.135Z,37.40
2017-09-19T18:08:55.446Z,39.63
2017-09-19T18:11:22.965Z,38.77
2017-09-19T18:13:50.483Z,47.30
2017-09-19T18:16:18.009Z,40.80
2017-09-19T18:18:45.511Z,44.50
2017-09-19T18:21:13.034Z,45.70
2017-09-19T18:23:40.574Z,51.13
2017-09-19T18:26:08.079Z,49.00
2017-09-19T18:28:35.649Z,48.50
2017-09-19T18:31:03.171Z,47.30
2017-09-19T18:33:30.685Z,48.50
2017-09-19T18:35:58.988Z,51.57
2017-09-19T18:38:26.504Z,50.17
2017-09-19T18:40:54.026Z,47.43
2017-09-19T18:43:21.563Z,55.27
2017-09-19T18:45:49.066Z,57.13
2017-09-19T18:48:16.590Z,78.33
2017-09-19T18:50:44.133Z,63.77
2017-09-19T18:53:11.635Z,55.87
2017-09-19T18:55:39.165Z,58.87
2017-09-19T18:58:06.691Z,60.17
2017-09-19T19:00:34.955Z,64.03
2017-09-19T19:03:03.278Z,57.83
2017-09-19T19:05:30.803Z,56.40
2017-09-19T19:07:59.081Z,72.77
2017-09-19T19:10:27.346Z,69.50
2017-09-19T19:12:55.652Z,62.83
2017-09-19T19:15:23.155Z,61.00
2017-09-19T19:17:50.655Z,66.27
2017-09-19T19:20:18.205Z,68.47
2017-09-19T19:22:46.491Z,67.27
2017-09-19T19:25:13.998Z,64.20
2017-09-19T19:27:41.536Z,71.10
2017-09-19T19:30:09.030Z,73.97
2017-09-19T19:32:36.557Z,66.87
2017-09-19T19:35:04.098Z,77.87
2017-09-19T19:37:31.599Z,64.10
2017-09-19T19:39:59.112Z,73.13
2017-09-19T19:42:26.652Z,65.90
2017-09-19T19:44:54.935Z,82.07
2017-09-19T19:47:22.453Z,74.20
2017-09-19T19:49:51.510Z,74.07
2017-09-19T19:52:19.017Z,90.97
2017-09-19T19:54:46.628Z,78.13
2017-09-19T19:57:14.155Z,74.23
2017-09-19T19:59:42.419Z,80.43
2017-09-19T20:02:10.682Z,83.83
2017-09-19T20:04:38.213Z,75.30
2017-09-19T20:07:05.715Z,75.37
2017-09-19T20:09:33.983Z,78.37
2017-09-19T20:12:02.275Z,81.23
2017-09-19T20:14:30.558Z,78.20
2017-09-19T20:16:58.059Z,77.90
2017-09-19T20:19:25.579Z,79.30
2017-09-19T20:21:53.093Z,87.10
2017-09-19T20:24:20.620Z,83.97
2017-09-19T20:26:48.124Z,92.10
2017-09-19T20:29:15.639Z,98.50
2017-09-19T20:31:43.140Z,109.70
2017-09-19T20:34:10.667Z,94.10
2017-09-19T20:36:38.163Z,86.00
2017-09-19T20:39:06.422Z,86.50
2017-09-19T20:41:33.939Z,96.60
2017-09-19T20:44:01.450Z,100.20
2017-09-19T20:46:28.962Z,91.77
2017-09-19T20:48:56.505Z,104.90
2017-09-19T20:51:24.023Z,102.00
2017-09-19T20:53:51.585Z,105.43
2017-09-19T20:56:19.101Z,120.43
2017-09-19T20:58:46.646Z,101.70
2017-09-19T21:01:14.189Z,118.23
2017-09-19T21:03:47.338Z,98.17
2017-09-19T21:06:20.477Z,101.60
2017-09-19T21:08:53.645Z,100.00
2017-09-19T21:11:26.985Z,101.10
2017-09-19T21:14:00.157Z,97.17
2017-09-19T21:16:33.525Z,117.37
2017-09-19T21:19:07.537Z,105.13
2017-09-19T21:21:35.089Z,109.80
2017-09-19T21:24:04.098Z,105.00
2017-09-19T21:26:32.424Z,102.50
2017-09-19T21:28:59.962Z,120.00
2017-09-19T21:31:27.543Z,107.63
2017-09-19T21:33:55.053Z,96.03
2017-09-19T21:36:23.342Z,104.70
2017-09-19T21:38:51.747Z,94.30
2017-09-19T21:41:19.323Z,97.10
2017-09-19T21:43:46.878Z,104.57
2017-09-19T21:46:14.393Z,103.83
2017-09-19T21:48:42.654Z,89.67
2017-09-19T21:51:10.193Z,84.03
2017-09-19T21:53:37.701Z,87.63
2017-09-19T21:56:05.276Z,91.97
2017-09-19T21:58:32.820Z,84.77
2017-09-19T22:01:00.451Z,80.80
2017-09-19T22:03:28.714Z,80.20
2017-09-19T22:05:56.243Z,84.77
2017-09-19T22:08:23.751Z,80.93
2017-09-19T22:10:52.043Z,91.87
2017-09-19T22:13:19.591Z,83.53
2017-09-19T22:15:47.863Z,81.13
2017-09-19T22:18:16.127Z,88.60
2017-09-19T22:20:43.667Z,84.33
2017-09-19T22:23:11.191Z,84.87
2017-09-19T22:25:38.701Z,83.97
2017-09-19T22:28:07.010Z,87.90
2017-09-19T22:30:34.523Z,82.20
2017-09-19T22:33:02.838Z,85.17
2017-09-19T22:35:31.137Z,89.00
2017-09-19T22:37:58.656Z,84.57
2017-09-19T22:40:26.965Z,75.63
2017-09-19T22:42:54.486Z,80.17
2017-09-19T22:45:21.996Z,87.73
2017-09-19T22:47:49.512Z,82.27
2017-09-19T22:50:17.793Z,81.27
2017-09-19T22:52:46.076Z,83.30
2017-09-19T22:55:13.607Z,84.20
2017-09-19T22:57:41.111Z,90.57
2017-09-19T23:00:08.626Z,73.13
2017-09-19T23:02:36.922Z,87.83
2017-09-19T23:05:04.449Z,85.87
2017-09-19T23:07:31.946Z,75.00
2017-09-19T23:09:59.493Z,80.23
2017-09-19T23:12:27.774Z,88.40
2017-09-19T23:14:56.040Z,91.57
2017-09-19T23:17:24.330Z,85.87
2017-09-19T23:19:51.835Z,73.33
2017-09-19T23:22:19.390Z,78.77
2017-09-19T23:24:46.929Z,80.27
2017-09-19T23:27:14.447Z,76.17
2017-09-19T23:29:42.732Z,71.43
2017-09-19T23:32:11.040Z,75.07
2017-09-19T23:34:38.538Z,80.23
2017-09-19T23:37:06.055Z,75.60
2017-09-19T23:39:33.588Z,82.07
2017-09-19T23:42:01.871Z,78.00
2017-09-19T23:44:29.397Z,66.40
2017-09-19T23:46:57.705Z,69.90
2017-09-19T23:49:25.287Z,73.33
2017-09-19T23:51:52.806Z,74.00
2017-09-19T23:54:21.094Z,70.70
2017-09-19T23:56:49.364Z,73.23
2017-09-19T23:59:19.792Z,79.87
